createdAt,value
2018-04-24T00:25:48.815Z,7.53
2018-04-24T00:28:16.096Z,6.17
2018-04-24T00:30:43.446Z,7.00
2018-04-24T00:33:10.739Z,6.67
2018-04-24T00:35:37.990Z,7.20
2018-04-24T00:38:05.311Z,6.60
2018-04-24T00:40:32.591Z,5.77
2018-04-24T00:42:59.873Z,6.63
2018-04-24T00:45:27.154Z,6.43
2018-04-24T00:47:54.444Z,6.50
2018-04-24T00:50:21.775Z,6.10
2018-04-24T00:52:49.069Z,6.87
2018-04-24T00:55:16.394Z,6.87
2018-04-24T00:57:43.671Z,5.53
2018-04-24T01:00:10.998Z,5.90
2018-04-24T01:02:38.290Z,4.97
2018-04-24T01:05:05.542Z,6.43
2018-04-24T01:07:32.867Z,5.10
2018-04-24T01:10:00.215Z,5.97
2018-04-24T01:12:27.491Z,6.13
2018-04-24T01:14:54.775Z,5.90
2018-04-24T01:17:22.022Z,7.17
2018-04-24T01:19:49.286Z,5.47
2018-04-24T01:22:16.558Z,4.90
2018-04-24T01:24:43.818Z,5.00
2018-04-24T01:27:11.090Z,6.63
2018-04-24T01:29:38.446Z,5.53
2018-04-24T01:32:05.709Z,5.23
2018-04-24T01:34:32.987Z,5.37
2018-04-24T01:37:00.311Z,5.47
2018-04-24T01:39:27.560Z,5.50
2018-04-24T01:41:54.833Z,4.77
2018-04-24T01:44:22.074Z,5.43
2018-04-24T01:46:49.350Z,5.13
2018-04-24T01:49:16.605Z,5.37
2018-04-24T01:51:43.943Z,5.50
2018-04-24T01:54:11.290Z,6.43
2018-04-24T01:56:38.558Z,4.97
2018-04-24T01:59:05.810Z,5.47
2018-04-24T02:01:33.088Z,5.00
2018-04-24T02:04:00.333Z,5.70
2018-04-24T02:06:27.607Z,5.00
2018-04-24T02:08:54.907Z,4.53
2018-04-24T02:11:22.168Z,5.40
2018-04-24T02:13:49.410Z,5.80
2018-04-24T02:16:16.686Z,4.57
2018-04-24T02:18:44.027Z,5.13
2018-04-24T02:21:11.299Z,5.20
2018-04-24T02:23:38.631Z,5.43
2018-04-24T02:26:05.917Z,5.60
2018-04-24T02:28:33.154Z,4.67
2018-04-24T02:31:00.431Z,5.93
2018-04-24T02:33:27.703Z,5.40
2018-04-24T02:35:55.002Z,5.10
2018-04-24T02:38:22.287Z,5.83
2018-04-24T02:40:49.539Z,5.70
2018-04-24T02:43:16.817Z,5.90
2018-04-24T02:45:44.063Z,5.60
2018-04-24T02:48:11.365Z,5.33
2018-04-24T02:50:38.623Z,5.67
2018-04-24T02:53:05.867Z,5.20
2018-04-24T02:55:33.150Z,5.23
2018-04-24T02:58:00.400Z,6.40
2018-04-24T03:00:27.674Z,5.53
2018-04-24T03:02:55.007Z,5.60
2018-04-24T03:05:22.247Z,5.40
2018-04-24T03:07:49.528Z,7.10
2018-04-24T03:10:16.865Z,6.03
2018-04-24T03:12:44.108Z,6.80
2018-04-24T03:15:11.464Z,5.93
2018-04-24T03:17:38.749Z,5.10
2018-04-24T03:20:06.020Z,6.10
2018-04-24T03:22:33.271Z,5.47
2018-04-24T03:25:00.552Z,6.20
2018-04-24T03:27:27.815Z,5.10
2018-04-24T03:29:55.091Z,6.10
2018-04-24T03:32:22.439Z,5.80
2018-04-24T03:34:49.686Z,5.27
2018-04-24T03:37:17.050Z,5.90
2018-04-24T03:39:44.303Z,5.87
2018-04-24T03:42:11.551Z,5.17
2018-04-24T03:44:38.910Z,6.13
2018-04-24T03:47:06.266Z,5.50
2018-04-24T03:49:33.515Z,5.37
2018-04-24T03:52:00.888Z,6.60
2018-04-24T03:54:28.163Z,5.87
2018-04-24T03:56:55.410Z,6.40
2018-04-24T03:59:22.663Z,5.63
2018-04-24T04:01:49.939Z,5.70
2018-04-24T04:04:17.199Z,6.67
2018-04-24T04:06:44.470Z,5.20
2018-04-24T04:09:11.722Z,6.20
2018-04-24T04:11:39.007Z,6.77
2018-04-24T04:14:06.262Z,5.23
2018-04-24T04:16:33.619Z,6.33
2018-04-24T04:19:06.922Z,6.47
2018-04-24T04:21:40.055Z,5.73
2018-04-24T04:24:13.147Z,6.03
2018-04-24T04:26:40.450Z,6.03
2018-04-24T04:29:07.700Z,6.80
2018-04-24T04:31:34.950Z,7.40
2018-04-24T04:34:02.223Z,5.50
2018-04-24T04:36:29.563Z,6.33
2018-04-24T04:38:56.835Z,6.13
2018-04-24T04:41:24.154Z,5.87
2018-04-24T04:43:51.368Z,6.47
2018-04-24T04:46:18.638Z,6.23
2018-04-24T04:48:45.932Z,5.10
2018-04-24T04:51:13.189Z,5.80
2018-04-24T04:53:40.463Z,6.57
2018-04-24T04:56:07.824Z,6.30
2018-04-24T04:58:35.018Z,6.07
2018-04-24T05:01:02.263Z,5.97
2018-04-24T05:03:29.519Z,5.70
2018-04-24T05:05:56.792Z,5.40
2018-04-24T05:08:24.060Z,5.93
2018-04-24T05:10:51.313Z,6.10
2018-04-24T05:13:18.768Z,5.47
2018-04-24T05:15:46.023Z,5.50
2018-04-24T05:18:13.274Z,6.03
2018-04-24T05:20:40.546Z,5.33
2018-04-24T05:23:07.798Z,5.43
2018-04-24T05:25:35.080Z,6.37
2018-04-24T05:28:02.329Z,5.37
2018-04-24T05:30:29.623Z,5.90
2018-04-24T05:32:56.875Z,5.13
2018-04-24T05:35:24.154Z,5.43
2018-04-24T05:37:51.430Z,6.80
2018-04-24T05:40:18.687Z,5.10
2018-04-24T05:42:45.959Z,5.70
2018-04-24T05:45:13.248Z,5.57
2018-04-24T05:47:40.527Z,4.77
2018-04-24T05:50:07.779Z,5.23
2018-04-24T05:52:35.063Z,5.00
2018-04-24T05:55:02.337Z,4.57
2018-04-24T05:57:29.588Z,5.23
2018-04-24T05:59:56.880Z,5.33
2018-04-24T06:02:24.123Z,4.20
2018-04-24T06:04:51.394Z,5.23
2018-04-24T06:07:18.676Z,4.73
2018-04-24T06:09:45.915Z,4.97
2018-04-24T06:12:13.196Z,4.50
2018-04-24T06:14:40.451Z,4.50
2018-04-24T06:17:07.726Z,5.07
2018-04-24T06:19:34.983Z,4.40
2018-04-24T06:22:02.264Z,4.70
2018-04-24T06:24:29.519Z,3.97
2018-04-24T06:26:56.794Z,4.90
2018-04-24T06:29:24.164Z,3.97
2018-04-24T06:31:51.483Z,4.27
2018-04-24T06:34:18.731Z,4.50
2018-04-24T06:36:45.982Z,4.57
2018-04-24T06:39:13.254Z,4.10
2018-04-24T06:41:40.516Z,4.60
2018-04-24T06:44:07.866Z,4.60
2018-04-24T06:46:35.127Z,4.13
2018-04-24T06:49:02.572Z,4.10
2018-04-24T06:51:29.851Z,4.47
2018-04-24T06:53:57.127Z,4.97
2018-04-24T06:56:24.383Z,4.40
2018-04-24T06:58:51.660Z,4.17
2018-04-24T07:01:18.931Z,4.30
2018-04-24T07:03:46.192Z,4.60
2018-04-24T07:06:13.463Z,4.73
2018-04-24T07:08:40.808Z,4.80
2018-04-24T07:11:08.222Z,4.43
2018-04-24T07:13:35.714Z,4.50
2018-04-24T07:16:02.985Z,4.40
2018-04-24T07:18:30.240Z,4.53
2018-04-24T07:20:57.511Z,4.70
2018-04-24T07:23:24.783Z,4.23
2018-04-24T07:25:52.058Z,4.13
2018-04-24T07:28:19.323Z,5.10
2018-04-24T07:30:46.594Z,4.60
2018-04-24T07:33:13.835Z,5.00
2018-04-24T07:35:41.202Z,5.07
2018-04-24T07:38:08.455Z,4.23
2018-04-24T07:40:35.709Z,3.97
2018-04-24T07:43:02.979Z,4.63
2018-04-24T07:45:30.238Z,4.07
2018-04-24T07:47:57.576Z,4.77
2018-04-24T07:50:24.931Z,4.43
2018-04-24T07:52:52.199Z,3.77
2018-04-24T07:55:19.539Z,4.00
2018-04-24T07:57:46.808Z,4.53
2018-04-24T08:00:14.066Z,3.60
2018-04-24T08:02:41.339Z,3.80
2018-04-24T08:05:08.608Z,4.33
2018-04-24T08:07:35.855Z,4.03
2018-04-24T08:10:03.127Z,4.03
2018-04-24T08:12:30.374Z,3.70
2018-04-24T08:14:57.646Z,3.80
2018-04-24T08:17:24.919Z,3.90
2018-04-24T08:19:52.193Z,3.80
2018-04-24T08:22:19.439Z,3.43
2018-04-24T08:24:46.725Z,2.93
2018-04-24T08:27:13.964Z,3.50
2018-04-24T08:29:41.234Z,2.90
2018-04-24T08:32:08.515Z,3.20
2018-04-24T08:34:35.791Z,3.80
2018-04-24T08:37:03.051Z,3.27
2018-04-24T08:39:30.299Z,2.90
2018-04-24T08:41:57.578Z,3.07
2018-04-24T08:44:24.910Z,3.20
2018-04-24T08:46:52.270Z,2.90
2018-04-24T08:49:19.523Z,3.10
2018-04-24T08:51:46.799Z,2.93
2018-04-24T08:54:14.073Z,3.13
2018-04-24T08:56:41.347Z,3.10
2018-04-24T08:59:08.734Z,2.80
2018-04-24T09:01:35.983Z,3.27
2018-04-24T09:04:03.258Z,2.40
2018-04-24T09:06:30.607Z,2.93
2018-04-24T09:08:57.880Z,2.97
2018-04-24T09:11:25.122Z,2.93
2018-04-24T09:13:52.398Z,2.30
2018-04-24T09:16:19.666Z,2.63
2018-04-24T09:18:46.943Z,2.30
2018-04-24T09:21:14.187Z,2.83
2018-04-24T09:23:41.435Z,3.10
2018-04-24T09:26:08.727Z,3.03
2018-04-24T09:28:35.978Z,3.30
2018-04-24T09:31:03.247Z,2.70
2018-04-24T09:33:30.546Z,2.97
2018-04-24T09:35:57.843Z,3.00
2018-04-24T09:38:25.095Z,2.37
2018-04-24T09:40:52.376Z,2.73
2018-04-24T09:43:19.709Z,2.57
2018-04-24T09:45:46.990Z,2.50
2018-04-24T09:48:14.239Z,2.70
2018-04-24T09:50:41.491Z,2.50
2018-04-24T09:53:08.827Z,2.60
2018-04-24T09:55:36.095Z,2.97
2018-04-24T09:58:03.431Z,2.97
2018-04-24T10:00:36.626Z,2.70
2018-04-24T10:03:03.851Z,2.60
2018-04-24T10:05:31.099Z,2.67
2018-04-24T10:07:58.375Z,2.77
2018-04-24T10:10:25.638Z,2.93
2018-04-24T10:12:52.904Z,2.63
2018-04-24T10:15:20.154Z,2.30
2018-04-24T10:17:47.503Z,2.47
2018-04-24T10:20:14.751Z,2.60
2018-04-24T10:22:42.036Z,2.37
2018-04-24T10:25:09.287Z,2.23
2018-04-24T10:27:36.618Z,2.90
2018-04-24T10:30:03.887Z,2.67
2018-04-24T10:32:31.141Z,2.43
2018-04-24T10:34:58.419Z,2.77
2018-04-24T10:37:25.743Z,3.00
2018-04-24T10:39:52.938Z,2.90
2018-04-24T10:42:20.182Z,2.70
2018-04-24T10:44:47.459Z,2.90
2018-04-24T10:47:14.739Z,2.43
2018-04-24T10:49:41.979Z,3.03
2018-04-24T10:52:09.275Z,2.53
2018-04-24T10:54:36.523Z,2.63
2018-04-24T10:57:03.773Z,2.43
2018-04-24T10:59:31.043Z,2.57
2018-04-24T11:01:58.360Z,2.47
2018-04-24T11:04:25.661Z,2.67
2018-04-24T11:06:53.031Z,2.37
2018-04-24T11:09:20.294Z,2.77
2018-04-24T11:11:47.591Z,2.87
2018-04-24T11:14:14.844Z,2.80
2018-04-24T11:16:42.079Z,2.63
2018-04-24T11:19:09.468Z,3.60
2018-04-24T11:21:36.720Z,2.70
2018-04-24T11:24:03.995Z,2.50
2018-04-24T11:26:31.278Z,2.77
2018-04-24T11:28:58.550Z,2.43
2018-04-24T11:31:25.829Z,2.53
2018-04-24T11:33:53.076Z,2.63
2018-04-24T11:36:20.357Z,2.30
2018-04-24T11:38:47.605Z,2.40
2018-04-24T11:41:14.877Z,2.20
2018-04-24T11:43:42.127Z,2.40
2018-04-24T11:46:09.407Z,2.30
2018-04-24T11:48:36.659Z,2.10
2018-04-24T11:51:03.927Z,2.20
2018-04-24T11:53:31.198Z,2.40
2018-04-24T11:55:58.475Z,2.60
2018-04-24T11:58:25.819Z,2.07
2018-04-24T12:00:53.087Z,2.17
2018-04-24T12:03:20.364Z,1.80
2018-04-24T12:05:47.608Z,1.83
2018-04-24T12:08:14.883Z,3.00
2018-04-24T12:10:42.135Z,1.60
2018-04-24T12:13:10.342Z,1.87
2018-04-24T12:15:37.695Z,1.93
2018-04-24T12:18:04.879Z,1.77
2018-04-24T12:20:32.208Z,1.90
2018-04-24T12:22:59.407Z,1.80
2018-04-24T12:25:26.686Z,2.23
2018-04-24T12:27:53.982Z,2.10
2018-04-24T12:30:21.233Z,2.20
2018-04-24T12:32:48.514Z,1.90
2018-04-24T12:35:15.764Z,1.80
2018-04-24T12:37:43.047Z,1.60
2018-04-24T12:40:10.295Z,1.90
2018-04-24T12:42:37.574Z,1.47
2018-04-24T12:45:04.864Z,1.30
2018-04-24T12:47:32.107Z,1.90
2018-04-24T12:49:59.467Z,2.07
2018-04-24T12:52:26.718Z,1.60
2018-04-24T12:54:53.987Z,2.03
2018-04-24T12:57:21.263Z,1.70
2018-04-24T12:59:48.543Z,1.60
2018-04-24T13:02:15.795Z,1.53
2018-04-24T13:04:43.157Z,1.40
2018-04-24T13:07:10.339Z,1.80
2018-04-24T13:09:37.616Z,1.50
2018-04-24T13:12:04.865Z,1.30
2018-04-24T13:14:32.146Z,1.80
2018-04-24T13:16:59.461Z,1.60
2018-04-24T13:19:26.711Z,1.40
2018-04-24T13:21:53.978Z,1.40
2018-04-24T13:24:21.327Z,1.43
2018-04-24T13:26:48.601Z,1.57
2018-04-24T13:29:15.849Z,1.20
2018-04-24T13:31:43.192Z,1.20
2018-04-24T13:34:10.431Z,1.20
2018-04-24T13:36:37.711Z,1.30
2018-04-24T13:39:04.982Z,1.30
2018-04-24T13:41:32.246Z,1.30
2018-04-24T13:43:59.556Z,1.37
2018-04-24T13:46:26.915Z,1.43
2018-04-24T13:48:54.216Z,1.47
2018-04-24T13:51:21.410Z,1.10
2018-04-24T13:53:48.687Z,1.20
2018-04-24T13:56:15.934Z,1.23
2018-04-24T13:58:43.206Z,1.30
2018-04-24T14:01:10.448Z,1.10
2018-04-24T14:03:37.727Z,1.30
2018-04-24T14:06:04.978Z,1.63
2018-04-24T14:08:32.223Z,1.30
2018-04-24T14:10:59.496Z,0.90
2018-04-24T14:13:26.743Z,1.43
2018-04-24T14:15:54.023Z,1.30
2018-04-24T14:18:21.267Z,1.27
2018-04-24T14:20:48.520Z,1.20
2018-04-24T14:23:15.791Z,1.30
2018-04-24T14:25:43.041Z,1.50
2018-04-24T14:28:10.332Z,1.87
2018-04-24T14:30:37.583Z,1.90
2018-04-24T14:33:04.861Z,1.93
2018-04-24T14:35:32.107Z,1.63
2018-04-24T14:37:59.386Z,1.80
2018-04-24T14:40:26.636Z,1.60
2018-04-24T14:42:53.882Z,1.93
2018-04-24T14:45:21.185Z,1.60
2018-04-24T14:47:48.476Z,1.77
2018-04-24T14:50:15.748Z,1.90
2018-04-24T14:52:43.020Z,1.60
2018-04-24T14:55:10.899Z,2.17
2018-04-24T14:57:38.388Z,1.70
2018-04-24T15:00:05.659Z,1.90
2018-04-24T15:02:32.930Z,1.87
2018-04-24T15:05:00.179Z,2.30
2018-04-24T15:07:27.467Z,1.73
2018-04-24T15:09:54.719Z,1.80
2018-04-24T15:12:23.249Z,2.30
2018-04-24T15:14:51.678Z,1.97
2018-04-24T15:17:19.116Z,1.90
2018-04-24T15:19:46.438Z,1.90
2018-04-24T15:22:13.684Z,1.80
2018-04-24T15:24:40.955Z,2.10
2018-04-24T15:27:08.296Z,2.23
2018-04-24T15:29:35.578Z,1.60
2018-04-24T15:32:02.823Z,1.47
2018-04-24T15:34:30.168Z,1.20
2018-04-24T15:36:57.411Z,1.60
2018-04-24T15:39:24.678Z,1.60
2018-04-24T15:41:51.944Z,1.83
2018-04-24T15:44:20.011Z,1.47
2018-04-24T15:46:47.320Z,1.63
2018-04-24T15:49:14.539Z,1.87
2018-04-24T15:51:41.854Z,2.10
2018-04-24T15:54:09.655Z,2.00
2018-04-24T15:56:36.906Z,2.40
2018-04-24T15:59:04.227Z,1.90
2018-04-24T16:01:31.934Z,2.20
2018-04-24T16:03:59.183Z,2.00
2018-04-24T16:06:26.438Z,1.80
2018-04-24T16:08:53.757Z,2.23
2018-04-24T16:11:21.043Z,1.70
2018-04-24T16:13:48.372Z,1.70
2018-04-24T16:16:15.551Z,1.83
2018-04-24T16:18:42.877Z,2.33
2018-04-24T16:21:10.118Z,2.27
2018-04-24T16:23:37.395Z,2.20
2018-04-24T16:26:04.639Z,2.30
2018-04-24T16:28:31.919Z,2.17
2018-04-24T16:30:59.171Z,2.10
2018-04-24T16:33:26.941Z,2.50
2018-04-24T16:35:54.236Z,2.30
2018-04-24T16:38:21.511Z,2.63
2018-04-24T16:40:48.769Z,2.50
2018-04-24T16:43:16.026Z,2.60
2018-04-24T16:45:43.273Z,2.07
2018-04-24T16:48:10.547Z,2.30
2018-04-24T16:50:37.790Z,2.73
2018-04-24T16:53:05.068Z,2.70
2018-04-24T16:55:32.357Z,2.23
2018-04-24T16:57:59.608Z,2.50
2018-04-24T17:00:26.960Z,2.40
2018-04-24T17:02:54.155Z,2.50
2018-04-24T17:05:21.413Z,2.53
2018-04-24T17:07:48.683Z,2.20
2018-04-24T17:10:15.928Z,2.77
2018-04-24T17:12:43.215Z,2.87
2018-04-24T17:15:10.525Z,2.50
2018-04-24T17:17:37.875Z,2.50
2018-04-24T17:20:05.173Z,2.33
2018-04-24T17:22:32.479Z,2.57
2018-04-24T17:24:59.751Z,2.30
2018-04-24T17:27:27.015Z,2.53
2018-04-24T17:29:54.289Z,2.90
2018-04-24T17:32:21.603Z,2.50
2018-04-24T17:34:48.883Z,2.53
2018-04-24T17:37:16.144Z,2.67
2018-04-24T17:39:43.468Z,2.27
2018-04-24T17:42:10.811Z,2.70
2018-04-24T17:44:38.078Z,2.30
2018-04-24T17:47:05.428Z,2.97
2018-04-24T17:49:32.678Z,2.20
2018-04-24T17:51:59.946Z,2.40
2018-04-24T17:54:27.207Z,2.13
2018-04-24T17:56:54.479Z,2.53
2018-04-24T17:59:21.792Z,2.30
2018-04-24T18:01:49.045Z,2.90
2018-04-24T18:04:16.296Z,2.97
2018-04-24T18:06:43.588Z,2.67
2018-04-24T18:09:10.915Z,3.00
2018-04-24T18:11:38.171Z,2.43
2018-04-24T18:14:05.456Z,2.80
2018-04-24T18:16:32.735Z,2.10
2018-04-24T18:19:00.027Z,2.90
2018-04-24T18:21:27.307Z,2.50
2018-04-24T18:23:54.647Z,2.67
2018-04-24T18:26:21.919Z,2.70
2018-04-24T18:28:49.198Z,2.73
2018-04-24T18:31:16.502Z,2.80
2018-04-24T18:33:43.780Z,2.67
2018-04-24T18:36:11.027Z,2.80
2018-04-24T18:38:38.311Z,2.43
2018-04-24T18:41:05.563Z,3.10
2018-04-24T18:43:32.843Z,3.37
2018-04-24T18:46:00.099Z,3.10
2018-04-24T18:48:27.354Z,3.10
2018-04-24T18:50:54.631Z,3.00
2018-04-24T18:53:21.888Z,2.50
2018-04-24T18:55:49.162Z,2.60
2018-04-24T18:58:16.405Z,2.50
2018-04-24T19:00:43.742Z,3.00
2018-04-24T19:03:12.777Z,2.77
2018-04-24T19:05:40.396Z,2.57
2018-04-24T19:08:07.639Z,2.60
2018-04-24T19:10:35.251Z,3.50
2018-04-24T19:13:05.888Z,3.00
2018-04-24T19:15:34.781Z,2.60
2018-04-24T19:18:02.508Z,2.00
2018-04-24T19:20:30.199Z,2.80
2018-04-24T19:22:57.690Z,2.73
2018-04-24T19:25:30.812Z,2.50
2018-04-24T19:27:58.055Z,3.27
2018-04-24T19:30:25.319Z,3.30
2018-04-24T19:32:52.580Z,2.70
2018-04-24T19:35:19.851Z,2.67
2018-04-24T19:37:47.110Z,3.03
2018-04-24T19:40:20.100Z,2.47
2018-04-24T19:42:47.364Z,2.60
2018-04-24T19:45:14.687Z,2.33
2018-04-24T19:47:42.043Z,2.83
2018-04-24T19:50:15.094Z,2.23
2018-04-24T19:52:42.355Z,2.47
2018-04-24T19:55:15.300Z,2.13
2018-04-24T19:57:42.560Z,2.63
2018-04-24T20:00:09.810Z,2.43
2018-04-24T20:02:37.130Z,2.37
2018-04-24T20:05:04.380Z,2.60
2018-04-24T20:07:31.741Z,2.93
2018-04-24T20:09:58.992Z,2.50
2018-04-24T20:12:26.352Z,2.53
2018-04-24T20:14:53.601Z,2.63
2018-04-24T20:17:20.862Z,2.40
2018-04-24T20:19:48.116Z,3.30
2018-04-24T20:22:15.472Z,3.20
2018-04-24T20:24:42.739Z,2.60
2018-04-24T20:27:10.006Z,3.50
2018-04-24T20:29:37.267Z,3.10
2018-04-24T20:32:04.532Z,2.43
2018-04-24T20:34:31.784Z,2.70
2018-04-24T20:36:59.062Z,2.70
2018-04-24T20:39:26.311Z,2.50
2018-04-24T20:41:53.586Z,2.40
2018-04-24T20:44:20.855Z,2.20
2018-04-24T20:46:48.202Z,2.80
2018-04-24T20:49:15.456Z,3.10
2018-04-24T20:51:42.720Z,2.67
2018-04-24T20:54:09.962Z,2.83
2018-04-24T20:56:37.230Z,2.77
2018-04-24T20:59:04.501Z,2.70
2018-04-24T21:01:31.768Z,3.23
2018-04-24T21:03:59.020Z,2.90
2018-04-24T21:06:26.283Z,2.87
2018-04-24T21:08:53.536Z,2.90
2018-04-24T21:11:20.842Z,2.80
2018-04-24T21:13:48.104Z,2.50
2018-04-24T21:16:15.368Z,2.63
2018-04-24T21:18:42.620Z,3.27
2018-04-24T21:21:09.891Z,2.60
2018-04-24T21:23:37.210Z,3.40
2018-04-24T21:26:04.487Z,3.57
2018-04-24T21:28:31.733Z,3.20
2018-04-24T21:30:59.006Z,2.30
2018-04-24T21:33:26.247Z,3.30
2018-04-24T21:35:53.580Z,3.07
2018-04-24T21:38:20.852Z,3.40
2018-04-24T21:40:48.095Z,3.07
2018-04-24T21:43:15.362Z,3.00
2018-04-24T21:45:42.693Z,3.10
2018-04-24T21:48:09.955Z,3.57
2018-04-24T21:50:37.207Z,3.00
2018-04-24T21:53:04.481Z,3.60
2018-04-24T21:55:31.734Z,3.13
2018-04-24T21:57:59.012Z,2.93
2018-04-24T22:00:26.255Z,2.97
2018-04-24T22:02:53.576Z,3.30
2018-04-24T22:05:20.823Z,3.20
2018-04-24T22:07:48.190Z,3.10
2018-04-24T22:10:15.431Z,3.40
2018-04-24T22:12:42.787Z,3.40
2018-04-24T22:15:10.038Z,3.33
2018-04-24T22:17:37.308Z,3.30
2018-04-24T22:20:04.567Z,3.27
2018-04-24T22:22:31.831Z,3.30
2018-04-24T22:24:59.088Z,3.37
2018-04-24T22:27:26.353Z,3.03
2018-04-24T22:29:53.607Z,3.57
2018-04-24T22:32:20.878Z,3.60
2018-04-24T22:34:48.126Z,3.10
2018-04-24T22:37:15.390Z,3.30
2018-04-24T22:39:42.638Z,3.87
2018-04-24T22:42:09.903Z,3.40
2018-04-24T22:44:37.165Z,3.80
2018-04-24T22:47:04.434Z,3.30
2018-04-24T22:49:31.687Z,3.67
2018-04-24T22:51:58.950Z,3.70
2018-04-24T22:54:26.200Z,3.60
2018-04-24T22:56:53.470Z,3.03
2018-04-24T22:59:20.723Z,2.90
2018-04-24T23:01:47.992Z,3.50
2018-04-24T23:04:15.251Z,3.60
2018-04-24T23:06:42.562Z,3.80
2018-04-24T23:09:09.815Z,3.47
2018-04-24T23:11:42.919Z,3.70
2018-04-24T23:14:22.047Z,4.57
2018-04-24T23:17:01.202Z,3.57
2018-04-24T23:19:40.618Z,3.80
2018-04-24T23:22:18.747Z,3.33
2018-04-24T23:24:46.004Z,3.60
2018-04-24T23:27:13.339Z,3.90
2018-04-24T23:29:40.596Z,3.77
2018-04-24T23:32:07.910Z,3.63
2018-04-24T23:34:35.193Z,4.00
2018-04-24T23:37:02.468Z,4.00
2018-04-24T23:39:29.718Z,4.00
2018-04-24T23:41:56.979Z,4.27
2018-04-24T23:44:24.310Z,3.63
2018-04-24T23:46:51.582Z,3.60
2018-04-24T23:49:18.840Z,3.63
2018-04-24T23:51:46.170Z,4.83
2018-04-24T23:54:13.440Z,4.53
2018-04-24T23:56:40.691Z,5.00
2018-04-24T23:59:07.955Z,4.77
